Decoded Metar for KDCM ( in _UNIDENTIFIED) (IATA:) | Meteo·Mobile Aviation Weather
aviador You're here:

KDCM Decoded Metar

in _UNIDENTIFIED
Report Time2019-10-22 13:55:00
UTC Time2019-10-22 14:04:20
Flight Rules lifr LIFR
Wind180° at 07 kt
W.Decomp.*RWY 17: 6.7 kt HW 1.9 kt RCW
RWY 23: 5.0 kt HW 4.9 kt LCW
Visibility6437 m
Phenomena:Mist
Clouds:Overcast 003 Hf
Ceiling300 ft
Temp20°C (ISA +6)
Dew Point20°C (100% RH)
QNH1013 hPa
Density Alt1,706 ft
Elevation656 ft
Report Wrong Elevation
Raw Report
METAR KDCM 221355Z AUTO 18007KT 4SM BR OVC003 20/20 A2990 RMK AO2 LTG
DSNT SE P0001=

Extra information for KDCM:More info

Metar Taf Metar & Taf Last 4 Metars F.Rules Stats Wind Profile Meteogram Temp Stats Metar ALERT Operation Metar Decoded Social comments